sensor_id;sensor_type;location;lat;lon;timestamp;temperature;humidity
29571;DHT22;16814;52.118;11.436;2023-04-03T00:01:32;-0.30;99.90
29571;DHT22;16814;52.118;11.436;2023-04-03T00:03:59;-0.40;99.90
29571;DHT22;16814;52.118;11.436;2023-04-03T00:06:25;-0.30;99.90
29571;DHT22;16814;52.118;11.436;2023-04-03T00:08:51;-0.40;99.90
29571;DHT22;16814;52.118;11.436;2023-04-03T00:11:17;-0.30;99.90
29571;DHT22;16814;52.118;11.436;2023-04-03T00:13:45;-0.20;99.90
29571;DHT22;16814;52.118;11.436;2023-04-03T00:16:11;-0.20;99.90
29571;DHT22;16814;52.118;11.436;2023-04-03T00:18:38;-0.40;99.90
29571;DHT22;16814;52.118;11.436;2023-04-03T00:21:04;-0.40;99.90
29571;DHT22;16814;52.118;11.436;2023-04-03T00:23:31;-0.40;99.90
29571;DHT22;16814;52.118;11.436;2023-04-03T00:25:59;-0.40;99.90
29571;DHT22;16814;52.118;11.436;2023-04-03T00:28:24;-0.30;99.90
29571;DHT22;16814;52.118;11.436;2023-04-03T00:30:51;-0.30;99.90
29571;DHT22;16814;52.118;11.436;2023-04-03T00:33:17;-0.30;99.90
29571;DHT22;16814;52.118;11.436;2023-04-03T00:35:42;-0.10;99.90
29571;DHT22;16814;52.118;11.436;2023-04-03T00:38:08;-0.20;99.90
29571;DHT22;16814;52.118;11.436;2023-04-03T00:40:36;-0.30;99.90
29571;DHT22;16814;52.118;11.436;2023-04-03T00:43:10;-0.40;99.90
29571;DHT22;16814;52.118;11.436;2023-04-03T00:45:39;-0.40;99.90
29571;DHT22;16814;52.118;11.436;2023-04-03T00:48:07;-0.40;99.90
29571;DHT22;16814;52.118;11.436;2023-04-03T00:50:37;-0.50;99.90
29571;DHT22;16814;52.118;11.436;2023-04-03T00:53:05;-0.50;99.90
29571;DHT22;16814;52.118;11.436;2023-04-03T00:55:32;-0.40;99.90
29571;DHT22;16814;52.118;11.436;2023-04-03T00:58:00;-0.30;99.90
29571;DHT22;16814;52.118;11.436;2023-04-03T01:00:26;-0.30;99.90
29571;DHT22;16814;52.118;11.436;2023-04-03T01:02:52;-0.30;99.90
29571;DHT22;16814;52.118;11.436;2023-04-03T01:05:19;-0.40;99.90
29571;DHT22;16814;52.118;11.436;2023-04-03T01:07:46;-0.30;99.90
29571;DHT22;16814;52.118;11.436;2023-04-03T01:10:15;-0.40;99.90
29571;DHT22;16814;52.118;11.436;2023-04-03T01:12:44;-0.40;99.90
29571;DHT22;16814;52.118;11.436;2023-04-03T01:15:22;-0.40;99.90
29571;DHT22;16814;52.118;11.436;2023-04-03T01:17:54;-0.40;99.90
29571;DHT22;16814;52.118;11.436;2023-04-03T01:23:05;-0.50;99.90
29571;DHT22;16814;52.118;11.436;2023-04-03T01:25:32;-0.50;99.90
29571;DHT22;16814;52.118;11.436;2023-04-03T01:27:57;-0.70;99.90
29571;DHT22;16814;52.118;11.436;2023-04-03T01:30:28;-0.70;99.90
29571;DHT22;16814;52.118;11.436;2023-04-03T01:32:56;-0.80;99.90
29571;DHT22;16814;52.118;11.436;2023-04-03T01:35:21;-0.80;99.90
29571;DHT22;16814;52.118;11.436;2023-04-03T01:37:47;-0.80;99.90
29571;DHT22;16814;52.118;11.436;2023-04-03T01:40:12;-0.70;99.90
29571;DHT22;16814;52.118;11.436;2023-04-03T01:42:38;-0.90;99.90
29571;DHT22;16814;52.118;11.436;2023-04-03T01:45:04;-0.90;99.90
29571;DHT22;16814;52.118;11.436;2023-04-03T01:47:30;-1.00;99.90
29571;DHT22;16814;52.118;11.436;2023-04-03T01:49:55;-1.10;99.90
29571;DHT22;16814;52.118;11.436;2023-04-03T01:52:21;-0.90;99.90
29571;DHT22;16814;52.118;11.436;2023-04-03T01:54:46;-0.90;99.90
29571;DHT22;16814;52.118;11.436;2023-04-03T01:57:12;-0.90;99.90
29571;DHT22;16814;52.118;11.436;2023-04-03T01:59:40;-0.80;99.90
29571;DHT22;16814;52.118;11.436;2023-04-03T02:02:06;-0.90;99.90
29571;DHT22;16814;52.118;11.436;2023-04-03T02:04:31;-1.10;99.90
29571;DHT22;16814;52.118;11.436;2023-04-03T02:06:57;-1.20;99.90
29571;DHT22;16814;52.118;11.436;2023-04-03T02:09:23;-1.00;99.90
29571;DHT22;16814;52.118;11.436;2023-04-03T02:11:48;-0.90;99.90
29571;DHT22;16814;52.118;11.436;2023-04-03T02:14:14;-0.90;99.90
29571;DHT22;16814;52.118;11.436;2023-04-03T02:16:40;-0.80;99.90
29571;DHT22;16814;52.118;11.436;2023-04-03T02:19:06;-0.80;99.90
29571;DHT22;16814;52.118;11.436;2023-04-03T02:21:31;-1.00;99.90
29571;DHT22;16814;52.118;11.436;2023-04-03T02:23:57;-1.00;99.90
29571;DHT22;16814;52.118;11.436;2023-04-03T02:26:22;-1.00;99.90
29571;DHT22;16814;52.118;11.436;2023-04-03T02:28:50;-1.00;99.90
29571;DHT22;16814;52.118;11.436;2023-04-03T02:31:15;-1.10;99.90
29571;DHT22;16814;52.118;11.436;2023-04-03T02:33:41;-1.10;99.90
29571;DHT22;16814;52.118;11.436;2023-04-03T02:36:07;-1.00;99.90
29571;DHT22;16814;52.118;11.436;2023-04-03T02:38:33;-1.10;99.90
29571;DHT22;16814;52.118;11.436;2023-04-03T02:41:09;-1.00;99.90
29571;DHT22;16814;52.118;11.436;2023-04-03T02:43:36;-1.10;99.90
29571;DHT22;16814;52.118;11.436;2023-04-03T02:46:01;-1.10;99.90
29571;DHT22;16814;52.118;11.436;2023-04-03T02:48:27;-1.00;99.90
29571;DHT22;16814;52.118;11.436;2023-04-03T02:50:53;-1.00;99.90
29571;DHT22;16814;52.118;11.436;2023-04-03T02:53:19;-1.00;99.90
29571;DHT22;16814;52.118;11.436;2023-04-03T02:55:45;-1.10;99.90
29571;DHT22;16814;52.118;11.436;2023-04-03T02:58:11;-1.20;99.90
29571;DHT22;16814;52.118;11.436;2023-04-03T03:00:37;-1.20;99.90
29571;DHT22;16814;52.118;11.436;2023-04-03T03:03:02;-1.20;99.90
29571;DHT22;16814;52.118;11.436;2023-04-03T03:05:28;-1.30;99.90
29571;DHT22;16814;52.118;11.436;2023-04-03T03:07:54;-1.20;99.90
29571;DHT22;16814;52.118;11.436;2023-04-03T03:10:20;-1.30;99.90
29571;DHT22;16814;52.118;11.436;2023-04-03T03:12:45;-1.30;99.90
29571;DHT22;16814;52.118;11.436;2023-04-03T03:15:11;-1.30;99.90
29571;DHT22;16814;52.118;11.436;2023-04-03T03:17:37;-1.40;99.90
29571;DHT22;16814;52.118;11.436;2023-04-03T03:20:04;-1.30;99.90
29571;DHT22;16814;52.118;11.436;2023-04-03T03:22:30;-1.30;99.90
29571;DHT22;16814;52.118;11.436;2023-04-03T03:24:56;-1.30;99.90
29571;DHT22;16814;52.118;11.436;2023-04-03T03:27:21;-1.20;99.90
29571;DHT22;16814;52.118;11.436;2023-04-03T03:29:47;-1.20;99.90
29571;DHT22;16814;52.118;11.436;2023-04-03T03:32:12;-1.20;99.90
29571;DHT22;16814;52.118;11.436;2023-04-03T03:34:38;-1.20;99.90
29571;DHT22;16814;52.118;11.436;2023-04-03T03:37:03;-1.30;99.90
29571;DHT22;16814;52.118;11.436;2023-04-03T03:39:29;-1.30;99.90
29571;DHT22;16814;52.118;11.436;2023-04-03T03:41:55;-1.40;99.90
29571;DHT22;16814;52.118;11.436;2023-04-03T03:44:21;-1.50;99.90
29571;DHT22;16814;52.118;11.436;2023-04-03T03:46:47;-1.50;99.90
29571;DHT22;16814;52.118;11.436;2023-04-03T03:49:12;-1.30;99.90
29571;DHT22;16814;52.118;11.436;2023-04-03T03:51:39;-1.40;99.90
29571;DHT22;16814;52.118;11.436;2023-04-03T03:54:04;-1.40;99.90
29571;DHT22;16814;52.118;11.436;2023-04-03T03:56:30;-1.40;99.90
29571;DHT22;16814;52.118;11.436;2023-04-03T03:58:56;-1.40;99.90
29571;DHT22;16814;52.118;11.436;2023-04-03T04:01:22;-1.40;99.90
29571;DHT22;16814;52.118;11.436;2023-04-03T04:03:48;-1.40;99.90
29571;DHT22;16814;52.118;11.436;2023-04-03T04:06:14;-1.40;99.90
29571;DHT22;16814;52.118;11.436;2023-04-03T04:08:39;-1.40;99.90
29571;DHT22;16814;52.118;11.436;2023-04-03T04:11:05;-1.30;99.90
29571;DHT22;16814;52.118;11.436;2023-04-03T04:13:32;-1.40;99.90
29571;DHT22;16814;52.118;11.436;2023-04-03T04:15:57;-1.60;99.90
29571;DHT22;16814;52.118;11.436;2023-04-03T04:18:23;-1.60;99.90
29571;DHT22;16814;52.118;11.436;2023-04-03T04:20:49;-1.60;99.90
29571;DHT22;16814;52.118;11.436;2023-04-03T04:23:16;-1.60;99.90
29571;DHT22;16814;52.118;11.436;2023-04-03T04:25:45;-1.60;99.90
29571;DHT22;16814;52.118;11.436;2023-04-03T04:28:11;-1.40;99.90
29571;DHT22;16814;52.118;11.436;2023-04-03T04:30:36;-1.50;99.90
29571;DHT22;16814;52.118;11.436;2023-04-03T04:33:02;-1.50;99.90
29571;DHT22;16814;52.118;11.436;2023-04-03T04:35:28;-1.50;99.90
29571;DHT22;16814;52.118;11.436;2023-04-03T04:37:54;-1.40;99.90
29571;DHT22;16814;52.118;11.436;2023-04-03T04:40:19;-1.50;99.90
29571;DHT22;16814;52.118;11.436;2023-04-03T04:42:45;-1.50;99.90
29571;DHT22;16814;52.118;11.436;2023-04-03T04:45:11;-1.50;99.90
29571;DHT22;16814;52.118;11.436;2023-04-03T04:47:36;-1.60;99.90
29571;DHT22;16814;52.118;11.436;2023-04-03T04:50:02;-1.60;99.90
29571;DHT22;16814;52.118;11.436;2023-04-03T04:52:28;-1.40;99.90
29571;DHT22;16814;52.118;11.436;2023-04-03T04:54:53;-1.50;99.90
29571;DHT22;16814;52.118;11.436;2023-04-03T04:57:19;-1.30;99.90
29571;DHT22;16814;52.118;11.436;2023-04-03T04:59:46;-1.30;99.90
29571;DHT22;16814;52.118;11.436;2023-04-03T05:02:11;-1.30;99.90
29571;DHT22;16814;52.118;11.436;2023-04-03T05:04:37;-1.30;99.90
29571;DHT22;16814;52.118;11.436;2023-04-03T05:07:02;-1.20;99.90
29571;DHT22;16814;52.118;11.436;2023-04-03T05:09:28;-1.00;99.90
29571;DHT22;16814;52.118;11.436;2023-04-03T05:11:53;-0.80;99.90
29571;DHT22;16814;52.118;11.436;2023-04-03T05:14:19;-0.70;99.90
29571;DHT22;16814;52.118;11.436;2023-04-03T05:16:45;-0.10;99.90
29571;DHT22;16814;52.118;11.436;2023-04-03T05:19:10;0.60;99.90
29571;DHT22;16814;52.118;11.436;2023-04-03T05:21:36;1.40;99.90
29571;DHT22;16814;52.118;11.436;2023-04-03T05:24:01;1.70;99.90
29571;DHT22;16814;52.118;11.436;2023-04-03T05:26:29;2.20;99.90
29571;DHT22;16814;52.118;11.436;2023-04-03T05:28:55;2.40;99.90
29571;DHT22;16814;52.118;11.436;2023-04-03T05:31:20;2.50;99.90
29571;DHT22;16814;52.118;11.436;2023-04-03T05:33:46;2.40;99.90
29571;DHT22;16814;52.118;11.436;2023-04-03T05:36:12;2.30;99.90
29571;DHT22;16814;52.118;11.436;2023-04-03T05:38:38;2.20;99.90
29571;DHT22;16814;52.118;11.436;2023-04-03T05:41:04;2.00;99.90
29571;DHT22;16814;52.118;11.436;2023-04-03T05:43:30;2.00;99.90
29571;DHT22;16814;52.118;11.436;2023-04-03T05:45:55;1.90;99.90
29571;DHT22;16814;52.118;11.436;2023-04-03T05:48:21;1.50;99.90
29571;DHT22;16814;52.118;11.436;2023-04-03T05:50:47;1.30;99.90
29571;DHT22;16814;52.118;11.436;2023-04-03T05:53:17;1.30;99.90
29571;DHT22;16814;52.118;11.436;2023-04-03T05:55:44;1.40;99.90
29571;DHT22;16814;52.118;11.436;2023-04-03T05:58:10;1.20;99.90
29571;DHT22;16814;52.118;11.436;2023-04-03T06:00:36;1.10;99.90
29571;DHT22;16814;52.118;11.436;2023-04-03T06:03:02;1.10;99.90
29571;DHT22;16814;52.118;11.436;2023-04-03T06:05:27;1.40;99.90
29571;DHT22;16814;52.118;11.436;2023-04-03T06:07:53;1.60;99.90
29571;DHT22;16814;52.118;11.436;2023-04-03T06:10:18;1.70;99.90
29571;DHT22;16814;52.118;11.436;2023-04-03T06:12:45;1.30;99.90
29571;DHT22;16814;52.118;11.436;2023-04-03T06:15:11;1.70;99.90
29571;DHT22;16814;52.118;11.436;2023-04-03T06:17:37;2.30;99.90
29571;DHT22;16814;52.118;11.436;2023-04-03T06:20:03;3.10;99.90
29571;DHT22;16814;52.118;11.436;2023-04-03T06:22:29;3.30;99.90
29571;DHT22;16814;52.118;11.436;2023-04-03T06:24:56;4.00;99.90
29571;DHT22;16814;52.118;11.436;2023-04-03T06:27:21;4.80;99.90
29571;DHT22;16814;52.118;11.436;2023-04-03T06:29:47;5.20;99.90
29571;DHT22;16814;52.118;11.436;2023-04-03T06:32:15;5.30;99.90
29571;DHT22;16814;52.118;11.436;2023-04-03T06:34:41;4.90;99.90
29571;DHT22;16814;52.118;11.436;2023-04-03T06:37:20;5.10;99.90
29571;DHT22;16814;52.118;11.436;2023-04-03T06:39:46;5.80;99.90
29571;DHT22;16814;52.118;11.436;2023-04-03T06:42:12;6.30;99.90
29571;DHT22;16814;52.118;11.436;2023-04-03T06:44:38;6.10;99.90
29571;DHT22;16814;52.118;11.436;2023-04-03T06:47:04;5.60;99.90
29571;DHT22;16814;52.118;11.436;2023-04-03T06:49:30;5.60;99.90
29571;DHT22;16814;52.118;11.436;2023-04-03T06:51:56;5.60;99.90
29571;DHT22;16814;52.118;11.436;2023-04-03T06:54:22;6.10;99.90
29571;DHT22;16814;52.118;11.436;2023-04-03T06:56:48;6.90;99.90
29571;DHT22;16814;52.118;11.436;2023-04-03T06:59:14;7.10;99.90
29571;DHT22;16814;52.118;11.436;2023-04-03T07:01:40;7.60;99.90
29571;DHT22;16814;52.118;11.436;2023-04-03T07:04:07;7.90;99.90
29571;DHT22;16814;52.118;11.436;2023-04-03T07:06:33;8.00;99.90
29571;DHT22;16814;52.118;11.436;2023-04-03T07:08:59;8.20;99.90
29571;DHT22;16814;52.118;11.436;2023-04-03T07:11:25;8.10;99.90
29571;DHT22;16814;52.118;11.436;2023-04-03T07:13:52;8.20;99.90
29571;DHT22;16814;52.118;11.436;2023-04-03T07:16:18;8.10;99.90
29571;DHT22;16814;52.118;11.436;2023-04-03T07:18:44;7.90;99.90
29571;DHT22;16814;52.118;11.436;2023-04-03T07:21:10;8.00;99.90
29571;DHT22;16814;52.118;11.436;2023-04-03T07:23:36;7.80;99.90
29571;DHT22;16814;52.118;11.436;2023-04-03T07:26:01;7.60;99.90
29571;DHT22;16814;52.118;11.436;2023-04-03T07:28:27;7.60;99.90
29571;DHT22;16814;52.118;11.436;2023-04-03T07:30:59;7.60;99.90
29571;DHT22;16814;52.118;11.436;2023-04-03T07:33:25;7.60;99.90
29571;DHT22;16814;52.118;11.436;2023-04-03T07:35:51;7.50;99.90
29571;DHT22;16814;52.118;11.436;2023-04-03T07:38:17;7.00;99.90
29571;DHT22;16814;52.118;11.436;2023-04-03T07:40:50;6.50;99.90
29571;DHT22;16814;52.118;11.436;2023-04-03T07:43:17;6.30;99.90
29571;DHT22;16814;52.118;11.436;2023-04-03T07:45:43;5.80;99.90
29571;DHT22;16814;52.118;11.436;2023-04-03T07:48:10;5.80;99.90
29571;DHT22;16814;52.118;11.436;2023-04-03T07:50:35;5.70;99.90
29571;DHT22;16814;52.118;11.436;2023-04-03T07:53:02;5.50;99.90
29571;DHT22;16814;52.118;11.436;2023-04-03T07:55:28;5.30;99.90
29571;DHT22;16814;52.118;11.436;2023-04-03T07:57:54;5.60;99.90
29571;DHT22;16814;52.118;11.436;2023-04-03T08:00:20;5.30;99.90
29571;DHT22;16814;52.118;11.436;2023-04-03T08:02:49;4.90;99.90
29571;DHT22;16814;52.118;11.436;2023-04-03T08:05:18;4.80;99.90
29571;DHT22;16814;52.118;11.436;2023-04-03T08:07:43;5.10;99.90
29571;DHT22;16814;52.118;11.436;2023-04-03T08:10:09;5.30;99.90
29571;DHT22;16814;52.118;11.436;2023-04-03T08:12:35;5.20;99.90
29571;DHT22;16814;52.118;11.436;2023-04-03T08:15:02;5.30;99.90
29571;DHT22;16814;52.118;11.436;2023-04-03T08:17:28;5.20;99.90
29571;DHT22;16814;52.118;11.436;2023-04-03T08:19:54;4.90;99.90
29571;DHT22;16814;52.118;11.436;2023-04-03T08:22:20;5.10;99.90
29571;DHT22;16814;52.118;11.436;2023-04-03T08:24:46;5.10;99.90
29571;DHT22;16814;52.118;11.436;2023-04-03T08:27:11;4.90;99.90
29571;DHT22;16814;52.118;11.436;2023-04-03T08:29:37;4.60;99.90
29571;DHT22;16814;52.118;11.436;2023-04-03T08:32:04;4.40;99.90
29571;DHT22;16814;52.118;11.436;2023-04-03T08:34:29;4.10;99.90
29571;DHT22;16814;52.118;11.436;2023-04-03T08:36:55;4.10;99.90
29571;DHT22;16814;52.118;11.436;2023-04-03T08:39:21;4.20;99.90
29571;DHT22;16814;52.118;11.436;2023-04-03T08:41:47;4.20;99.90
29571;DHT22;16814;52.118;11.436;2023-04-03T08:44:25;4.30;99.90
29571;DHT22;16814;52.118;11.436;2023-04-03T08:49:52;4.60;99.90
29571;DHT22;16814;52.118;11.436;2023-04-03T08:52:32;4.50;99.90
29571;DHT22;16814;52.118;11.436;2023-04-03T08:55:07;4.90;99.90
29571;DHT22;16814;52.118;11.436;2023-04-03T08:57:40;4.90;99.90
29571;DHT22;16814;52.118;11.436;2023-04-03T09:00:20;5.30;99.90
29571;DHT22;16814;52.118;11.436;2023-04-03T09:02:51;5.20;99.90
29571;DHT22;16814;52.118;11.436;2023-04-03T09:08:12;4.70;99.90
29571;DHT22;16814;52.118;11.436;2023-04-03T09:10:40;4.90;99.90
29571;DHT22;16814;52.118;11.436;2023-04-03T09:13:25;5.40;99.90
29571;DHT22;16814;52.118;11.436;2023-04-03T09:15:53;5.40;99.90
29571;DHT22;16814;52.118;11.436;2023-04-03T09:18:26;5.40;99.90
29571;DHT22;16814;52.118;11.436;2023-04-03T09:21:02;5.40;99.90
29571;DHT22;16814;52.118;11.436;2023-04-03T09:23:50;5.50;99.90
29571;DHT22;16814;52.118;11.436;2023-04-03T09:26:36;5.70;99.90
29571;DHT22;16814;52.118;11.436;2023-04-03T09:29:08;6.10;99.90
29571;DHT22;16814;52.118;11.436;2023-04-03T09:31:42;6.50;99.90
29571;DHT22;16814;52.118;11.436;2023-04-03T09:34:23;6.50;99.90
29571;DHT22;16814;52.118;11.436;2023-04-03T09:36:52;6.70;99.90
29571;DHT22;16814;52.118;11.436;2023-04-03T09:39:28;6.40;99.90
29571;DHT22;16814;52.118;11.436;2023-04-03T09:42:11;6.10;99.90
29571;DHT22;16814;52.118;11.436;2023-04-03T09:44:39;6.40;99.90
29571;DHT22;16814;52.118;11.436;2023-04-03T09:49:48;6.30;99.90
29571;DHT22;16814;52.118;11.436;2023-04-03T09:52:23;5.90;99.90
29571;DHT22;16814;52.118;11.436;2023-04-03T09:54:49;5.80;99.90
29571;DHT22;16814;52.118;11.436;2023-04-03T09:57:15;5.90;99.90
29571;DHT22;16814;52.118;11.436;2023-04-03T09:59:57;6.30;99.90
29571;DHT22;16814;52.118;11.436;2023-04-03T10:02:43;6.40;99.90
29571;DHT22;16814;52.118;11.436;2023-04-03T10:05:33;6.80;99.90
29571;DHT22;16814;52.118;11.436;2023-04-03T10:08:22;7.20;99.90
29571;DHT22;16814;52.118;11.436;2023-04-03T10:11:06;7.10;99.90
29571;DHT22;16814;52.118;11.436;2023-04-03T10:13:32;6.80;99.90
29571;DHT22;16814;52.118;11.436;2023-04-03T10:16:14;6.20;99.90
29571;DHT22;16814;52.118;11.436;2023-04-03T10:18:42;5.70;99.90
29571;DHT22;16814;52.118;11.436;2023-04-03T10:21:40;5.50;99.90
29571;DHT22;16814;52.118;11.436;2023-04-03T10:24:14;6.00;99.90
29571;DHT22;16814;52.118;11.436;2023-04-03T10:29:43;6.70;99.90
29571;DHT22;16814;52.118;11.436;2023-04-03T10:35:24;6.70;99.90
29571;DHT22;16814;52.118;11.436;2023-04-03T10:41:08;6.90;99.90
29571;DHT22;16814;52.118;11.436;2023-04-03T10:43:44;6.70;99.90
29571;DHT22;16814;52.118;11.436;2023-04-03T10:46:33;6.50;99.90
29571;DHT22;16814;52.118;11.436;2023-04-03T10:49:17;6.60;99.90
29571;DHT22;16814;52.118;11.436;2023-04-03T10:51:48;6.60;99.90
29571;DHT22;16814;52.118;11.436;2023-04-03T10:54:28;6.80;99.90
29571;DHT22;16814;52.118;11.436;2023-04-03T10:56:58;6.70;99.90
29571;DHT22;16814;52.118;11.436;2023-04-03T10:59:35;6.70;99.90
29571;DHT22;16814;52.118;11.436;2023-04-03T11:02:30;6.50;99.90
29571;DHT22;16814;52.118;11.436;2023-04-03T11:05:03;6.60;99.90
29571;DHT22;16814;52.118;11.436;2023-04-03T11:07:38;6.60;99.90
29571;DHT22;16814;52.118;11.436;2023-04-03T11:10:15;6.60;99.90
29571;DHT22;16814;52.118;11.436;2023-04-03T11:12:48;6.50;99.90
29571;DHT22;16814;52.118;11.436;2023-04-03T11:15:29;6.40;99.90
29571;DHT22;16814;52.118;11.436;2023-04-03T11:19:33;6.20;99.90
29571;DHT22;16814;52.118;11.436;2023-04-03T11:21:40;6.20;99.90
29571;DHT22;16814;52.118;11.436;2023-04-03T11:24:17;6.20;99.90
29571;DHT22;16814;52.118;11.436;2023-04-03T11:26:45;6.50;99.90
29571;DHT22;16814;52.118;11.436;2023-04-03T11:29:17;6.80;99.90
29571;DHT22;16814;52.118;11.436;2023-04-03T11:34:53;6.30;99.90
29571;DHT22;16814;52.118;11.436;2023-04-03T11:37:45;6.10;99.90
29571;DHT22;16814;52.118;11.436;2023-04-03T11:42:48;6.00;99.90
29571;DHT22;16814;52.118;11.436;2023-04-03T11:48:06;6.40;99.90
29571;DHT22;16814;52.118;11.436;2023-04-03T11:50:48;6.30;99.90
29571;DHT22;16814;52.118;11.436;2023-04-03T11:58:28;6.20;99.90
29571;DHT22;16814;52.118;11.436;2023-04-03T12:00:56;6.30;99.90
29571;DHT22;16814;52.118;11.436;2023-04-03T12:40:50;5.80;99.90
29571;DHT22;16814;52.118;11.436;2023-04-03T12:43:47;5.90;99.90
29571;DHT22;16814;52.118;11.436;2023-04-03T12:46:18;5.70;99.90
29571;DHT22;16814;52.118;11.436;2023-04-03T12:51:18;5.50;99.90
29571;DHT22;16814;52.118;11.436;2023-04-03T12:53:44;5.70;99.90
29571;DHT22;16814;52.118;11.436;2023-04-03T12:58:55;5.70;99.90
29571;DHT22;16814;52.118;11.436;2023-04-03T13:01:24;5.60;99.90
29571;DHT22;16814;52.118;11.436;2023-04-03T13:03:54;5.60;99.90
29571;DHT22;16814;52.118;11.436;2023-04-03T13:07:00;5.80;99.90
29571;DHT22;16814;52.118;11.436;2023-04-03T13:09:30;6.20;99.90
29571;DHT22;16814;52.118;11.436;2023-04-03T13:14:35;6.20;99.90
29571;DHT22;16814;52.118;11.436;2023-04-03T13:17:12;6.20;99.90
29571;DHT22;16814;52.118;11.436;2023-04-03T13:19:41;6.20;99.90
29571;DHT22;16814;52.118;11.436;2023-04-03T13:22:25;6.10;99.90
29571;DHT22;16814;52.118;11.436;2023-04-03T13:24:53;6.10;99.90
29571;DHT22;16814;52.118;11.436;2023-04-03T13:27:22;6.00;99.90
29571;DHT22;16814;52.118;11.436;2023-04-03T13:29:57;5.90;99.90
29571;DHT22;16814;52.118;11.436;2023-04-03T13:32:25;6.10;99.90
29571;DHT22;16814;52.118;11.436;2023-04-03T13:34:53;6.10;99.90
29571;DHT22;16814;52.118;11.436;2023-04-03T13:37:33;6.10;99.90
29571;DHT22;16814;52.118;11.436;2023-04-03T13:40:11;6.00;99.90
29571;DHT22;16814;52.118;11.436;2023-04-03T13:42:40;5.80;99.90
29571;DHT22;16814;52.118;11.436;2023-04-03T13:47:43;6.10;99.90
29571;DHT22;16814;52.118;11.436;2023-04-03T13:53:01;6.10;99.90
29571;DHT22;16814;52.118;11.436;2023-04-03T13:55:34;5.80;99.90
29571;DHT22;16814;52.118;11.436;2023-04-03T14:00:56;6.10;99.90
29571;DHT22;16814;52.118;11.436;2023-04-03T14:06:33;6.30;99.90
29571;DHT22;16814;52.118;11.436;2023-04-03T14:08:59;6.20;99.90
29571;DHT22;16814;52.118;11.436;2023-04-03T14:11:29;6.20;99.90
29571;DHT22;16814;52.118;11.436;2023-04-03T14:13:58;6.30;99.90
29571;DHT22;16814;52.118;11.436;2023-04-03T14:16:28;6.20;99.90
29571;DHT22;16814;52.118;11.436;2023-04-03T14:18:54;6.10;99.90
29571;DHT22;16814;52.118;11.436;2023-04-03T14:21:22;6.10;99.90
29571;DHT22;16814;52.118;11.436;2023-04-03T14:23:50;5.90;99.90
29571;DHT22;16814;52.118;11.436;2023-04-03T14:26:23;6.00;99.90
29571;DHT22;16814;52.118;11.436;2023-04-03T14:28:54;6.20;99.90
29571;DHT22;16814;52.118;11.436;2023-04-03T14:31:22;6.50;99.90
29571;DHT22;16814;52.118;11.436;2023-04-03T14:33:48;6.50;99.90
29571;DHT22;16814;52.118;11.436;2023-04-03T14:36:19;6.50;99.90
29571;DHT22;16814;52.118;11.436;2023-04-03T14:38:47;6.40;99.90
29571;DHT22;16814;52.118;11.436;2023-04-03T14:41:15;6.40;99.90
29571;DHT22;16814;52.118;11.436;2023-04-03T14:43:42;6.30;99.90
29571;DHT22;16814;52.118;11.436;2023-04-03T14:48:43;6.20;99.90
29571;DHT22;16814;52.118;11.436;2023-04-03T14:51:14;5.80;99.90
29571;DHT22;16814;52.118;11.436;2023-04-03T14:53:41;6.00;99.90
29571;DHT22;16814;52.118;11.436;2023-04-03T14:56:25;5.80;99.90
29571;DHT22;16814;52.118;11.436;2023-04-03T14:59:04;5.90;99.90
29571;DHT22;16814;52.118;11.436;2023-04-03T15:01:34;5.80;99.90
29571;DHT22;16814;52.118;11.436;2023-04-03T15:04:00;5.80;99.90
29571;DHT22;16814;52.118;11.436;2023-04-03T15:06:26;5.80;99.90
29571;DHT22;16814;52.118;11.436;2023-04-03T15:08:52;6.00;99.90
29571;DHT22;16814;52.118;11.436;2023-04-03T15:11:18;6.00;99.90
29571;DHT22;16814;52.118;11.436;2023-04-03T15:13:44;5.70;99.90
29571;DHT22;16814;52.118;11.436;2023-04-03T15:16:17;5.90;99.90
29571;DHT22;16814;52.118;11.436;2023-04-03T15:18:44;5.90;99.90
29571;DHT22;16814;52.118;11.436;2023-04-03T15:21:10;5.70;99.90
29571;DHT22;16814;52.118;11.436;2023-04-03T15:23:36;5.60;99.90
29571;DHT22;16814;52.118;11.436;2023-04-03T15:26:03;5.70;99.90
29571;DHT22;16814;52.118;11.436;2023-04-03T15:28:41;5.70;99.90
29571;DHT22;16814;52.118;11.436;2023-04-03T15:31:07;5.60;99.90
29571;DHT22;16814;52.118;11.436;2023-04-03T15:33:33;5.50;99.90
29571;DHT22;16814;52.118;11.436;2023-04-03T15:35:59;5.70;99.90
29571;DHT22;16814;52.118;11.436;2023-04-03T15:38:26;5.90;99.90
29571;DHT22;16814;52.118;11.436;2023-04-03T15:40:54;5.90;99.90
29571;DHT22;16814;52.118;11.436;2023-04-03T15:43:20;5.80;99.90
29571;DHT22;16814;52.118;11.436;2023-04-03T15:45:49;5.70;99.90
29571;DHT22;16814;52.118;11.436;2023-04-03T15:48:15;5.30;99.90
29571;DHT22;16814;52.118;11.436;2023-04-03T15:50:43;5.30;99.90
29571;DHT22;16814;52.118;11.436;2023-04-03T15:53:10;5.30;99.90
29571;DHT22;16814;52.118;11.436;2023-04-03T15:55:37;5.50;99.90
29571;DHT22;16814;52.118;11.436;2023-04-03T15:58:03;5.50;99.90
29571;DHT22;16814;52.118;11.436;2023-04-03T16:00:32;5.40;99.90
29571;DHT22;16814;52.118;11.436;2023-04-03T16:03:09;5.40;99.90
29571;DHT22;16814;52.118;11.436;2023-04-03T16:05:38;5.30;99.90
29571;DHT22;16814;52.118;11.436;2023-04-03T16:08:06;5.20;99.90
29571;DHT22;16814;52.118;11.436;2023-04-03T16:10:34;5.10;99.90
29571;DHT22;16814;52.118;11.436;2023-04-03T16:13:02;5.10;99.90
29571;DHT22;16814;52.118;11.436;2023-04-03T16:15:28;5.10;99.90
29571;DHT22;16814;52.118;11.436;2023-04-03T16:17:54;5.10;99.90
29571;DHT22;16814;52.118;11.436;2023-04-03T16:20:21;5.20;99.90
29571;DHT22;16814;52.118;11.436;2023-04-03T16:22:49;5.20;99.90
29571;DHT22;16814;52.118;11.436;2023-04-03T16:25:15;5.20;99.90
29571;DHT22;16814;52.118;11.436;2023-04-03T16:27:40;5.20;99.90
29571;DHT22;16814;52.118;11.436;2023-04-03T16:30:07;5.10;99.90
29571;DHT22;16814;52.118;11.436;2023-04-03T16:32:33;4.90;99.90
29571;DHT22;16814;52.118;11.436;2023-04-03T16:35:00;4.80;99.90
29571;DHT22;16814;52.118;11.436;2023-04-03T16:37:26;4.80;99.90
29571;DHT22;16814;52.118;11.436;2023-04-03T16:39:52;4.80;99.90
29571;DHT22;16814;52.118;11.436;2023-04-03T16:42:18;4.90;99.90
29571;DHT22;16814;52.118;11.436;2023-04-03T16:44:45;5.00;99.90
29571;DHT22;16814;52.118;11.436;2023-04-03T16:47:10;4.90;99.90
29571;DHT22;16814;52.118;11.436;2023-04-03T16:49:38;4.80;99.90
29571;DHT22;16814;52.118;11.436;2023-04-03T16:52:05;4.90;99.90
29571;DHT22;16814;52.118;11.436;2023-04-03T16:54:31;4.90;99.90
29571;DHT22;16814;52.118;11.436;2023-04-03T16:56:59;4.70;99.90
29571;DHT22;16814;52.118;11.436;2023-04-03T16:59:24;4.80;99.90
29571;DHT22;16814;52.118;11.436;2023-04-03T17:01:51;4.90;99.90
29571;DHT22;16814;52.118;11.436;2023-04-03T17:04:18;4.60;99.90
29571;DHT22;16814;52.118;11.436;2023-04-03T17:06:44;4.70;99.90
29571;DHT22;16814;52.118;11.436;2023-04-03T17:09:10;4.60;99.90